sensor_id;sensor_type;location;lat;lon;timestamp;P1;durP1;ratioP1;P2;durP2;ratioP2
79375;SDS011;68846;53.150;18.136;2023-09-18T00:01:02;12.20;;;7.80;;
79375;SDS011;68846;53.150;18.136;2023-09-18T00:03:39;11.70;;;7.40;;
79375;SDS011;68846;53.150;18.136;2023-09-18T00:06:06;13.40;;;8.60;;
79375;SDS011;68846;53.150;18.136;2023-09-18T00:08:35;12.60;;;8.00;;
79375;SDS011;68846;53.150;18.136;2023-09-18T00:11:02;13.30;;;8.90;;
79375;SDS011;68846;53.150;18.136;2023-09-18T00:13:29;12.60;;;8.70;;
79375;SDS011;68846;53.150;18.136;2023-09-18T00:15:57;12.30;;;7.90;;
79375;SDS011;68846;53.150;18.136;2023-09-18T00:18:26;14.90;;;8.20;;
79375;SDS011;68846;53.150;18.136;2023-09-18T00:20:54;12.00;;;8.40;;
79375;SDS011;68846;53.150;18.136;2023-09-18T00:23:22;10.70;;;7.20;;
79375;SDS011;68846;53.150;18.136;2023-09-18T00:25:49;10.20;;;7.40;;
79375;SDS011;68846;53.150;18.136;2023-09-18T00:28:16;11.50;;;7.90;;
79375;SDS011;68846;53.150;18.136;2023-09-18T00:30:47;12.00;;;8.50;;
79375;SDS011;68846;53.150;18.136;2023-09-18T00:33:16;11.20;;;8.40;;
79375;SDS011;68846;53.150;18.136;2023-09-18T00:35:50;11.10;;;8.10;;
79375;SDS011;68846;53.150;18.136;2023-09-18T00:38:18;13.30;;;8.70;;
79375;SDS011;68846;53.150;18.136;2023-09-18T00:40:46;13.40;;;8.40;;
79375;SDS011;68846;53.150;18.136;2023-09-18T00:43:13;10.20;;;8.30;;
79375;SDS011;68846;53.150;18.136;2023-09-18T00:45:45;13.50;;;8.70;;
79375;SDS011;68846;53.150;18.136;2023-09-18T00:48:15;15.00;;;8.80;;
79375;SDS011;68846;53.150;18.136;2023-09-18T00:50:46;12.40;;;7.60;;
79375;SDS011;68846;53.150;18.136;2023-09-18T00:53:20;12.50;;;8.90;;
79375;SDS011;68846;53.150;18.136;2023-09-18T00:55:53;13.10;;;8.70;;
79375;SDS011;68846;53.150;18.136;2023-09-18T00:58:23;12.30;;;8.80;;
79375;SDS011;68846;53.150;18.136;2023-09-18T01:00:50;13.10;;;8.50;;
79375;SDS011;68846;53.150;18.136;2023-09-18T01:03:21;13.80;;;8.50;;
79375;SDS011;68846;53.150;18.136;2023-09-18T01:05:49;12.70;;;8.10;;
79375;SDS011;68846;53.150;18.136;2023-09-18T01:08:17;12.10;;;8.60;;
79375;SDS011;68846;53.150;18.136;2023-09-18T01:11:00;12.90;;;8.90;;
79375;SDS011;68846;53.150;18.136;2023-09-18T01:16:27;13.20;;;9.10;;
79375;SDS011;68846;53.150;18.136;2023-09-18T01:19:02;14.40;;;9.10;;
79375;SDS011;68846;53.150;18.136;2023-09-18T01:21:30;12.70;;;9.40;;
79375;SDS011;68846;53.150;18.136;2023-09-18T01:23:58;12.90;;;9.00;;
79375;SDS011;68846;53.150;18.136;2023-09-18T01:26:25;12.70;;;9.10;;
79375;SDS011;68846;53.150;18.136;2023-09-18T01:28:52;11.90;;;8.60;;
79375;SDS011;68846;53.150;18.136;2023-09-18T01:31:20;13.80;;;8.60;;
79375;SDS011;68846;53.150;18.136;2023-09-18T01:33:47;13.00;;;9.10;;
79375;SDS011;68846;53.150;18.136;2023-09-18T01:36:16;13.50;;;8.70;;
79375;SDS011;68846;53.150;18.136;2023-09-18T01:38:44;12.20;;;8.40;;
79375;SDS011;68846;53.150;18.136;2023-09-18T01:41:13;11.50;;;8.10;;
79375;SDS011;68846;53.150;18.136;2023-09-18T01:43:40;15.50;;;9.30;;
79375;SDS011;68846;53.150;18.136;2023-09-18T01:46:07;11.50;;;8.40;;
79375;SDS011;68846;53.150;18.136;2023-09-18T01:48:37;14.60;;;9.20;;
79375;SDS011;68846;53.150;18.136;2023-09-18T01:51:14;15.30;;;9.60;;
79375;SDS011;68846;53.150;18.136;2023-09-18T01:53:42;13.30;;;9.20;;
79375;SDS011;68846;53.150;18.136;2023-09-18T01:56:10;13.80;;;9.10;;
79375;SDS011;68846;53.150;18.136;2023-09-18T01:58:37;16.60;;;8.90;;
79375;SDS011;68846;53.150;18.136;2023-09-18T02:01:04;12.40;;;8.80;;
79375;SDS011;68846;53.150;18.136;2023-09-18T02:03:31;12.50;;;9.00;;
79375;SDS011;68846;53.150;18.136;2023-09-18T02:05:59;14.30;;;8.50;;
79375;SDS011;68846;53.150;18.136;2023-09-18T02:08:26;11.60;;;8.20;;
79375;SDS011;68846;53.150;18.136;2023-09-18T02:10:55;12.90;;;9.40;;
79375;SDS011;68846;53.150;18.136;2023-09-18T02:13:22;12.90;;;9.20;;
79375;SDS011;68846;53.150;18.136;2023-09-18T02:15:50;12.00;;;9.20;;
79375;SDS011;68846;53.150;18.136;2023-09-18T02:18:17;11.20;;;8.50;;
79375;SDS011;68846;53.150;18.136;2023-09-18T02:20:44;13.70;;;9.20;;
79375;SDS011;68846;53.150;18.136;2023-09-18T02:23:15;12.20;;;8.40;;
79375;SDS011;68846;53.150;18.136;2023-09-18T02:25:43;11.50;;;8.90;;
79375;SDS011;68846;53.150;18.136;2023-09-18T02:28:10;13.50;;;8.10;;
79375;SDS011;68846;53.150;18.136;2023-09-18T02:30:38;11.10;;;9.00;;
79375;SDS011;68846;53.150;18.136;2023-09-18T02:33:05;12.40;;;9.50;;
79375;SDS011;68846;53.150;18.136;2023-09-18T02:35:35;14.50;;;9.20;;
79375;SDS011;68846;53.150;18.136;2023-09-18T02:38:03;13.10;;;9.70;;
79375;SDS011;68846;53.150;18.136;2023-09-18T02:40:31;11.30;;;8.70;;
79375;SDS011;68846;53.150;18.136;2023-09-18T02:42:59;11.10;;;8.00;;
79375;SDS011;68846;53.150;18.136;2023-09-18T02:45:26;12.50;;;9.10;;
79375;SDS011;68846;53.150;18.136;2023-09-18T02:47:53;15.40;;;9.20;;
79375;SDS011;68846;53.150;18.136;2023-09-18T02:50:20;15.40;;;10.80;;
79375;SDS011;68846;53.150;18.136;2023-09-18T02:52:48;14.20;;;8.90;;
79375;SDS011;68846;53.150;18.136;2023-09-18T02:55:15;14.00;;;9.10;;
79375;SDS011;68846;53.150;18.136;2023-09-18T02:57:43;13.60;;;9.70;;
79375;SDS011;68846;53.150;18.136;2023-09-18T03:00:11;12.40;;;9.70;;
79375;SDS011;68846;53.150;18.136;2023-09-18T03:02:39;11.70;;;8.70;;
79375;SDS011;68846;53.150;18.136;2023-09-18T03:05:07;11.90;;;8.80;;
79375;SDS011;68846;53.150;18.136;2023-09-18T03:07:35;14.00;;;9.00;;
79375;SDS011;68846;53.150;18.136;2023-09-18T03:10:03;12.80;;;9.20;;
79375;SDS011;68846;53.150;18.136;2023-09-18T03:12:31;16.10;;;9.40;;
79375;SDS011;68846;53.150;18.136;2023-09-18T03:15:00;13.40;;;9.90;;
79375;SDS011;68846;53.150;18.136;2023-09-18T03:17:27;13.30;;;9.30;;
79375;SDS011;68846;53.150;18.136;2023-09-18T03:19:54;20.00;;;10.70;;
79375;SDS011;68846;53.150;18.136;2023-09-18T03:22:21;13.10;;;9.40;;
79375;SDS011;68846;53.150;18.136;2023-09-18T03:24:49;15.40;;;9.70;;
79375;SDS011;68846;53.150;18.136;2023-09-18T03:27:16;14.10;;;9.70;;
79375;SDS011;68846;53.150;18.136;2023-09-18T03:29:43;12.20;;;9.30;;
79375;SDS011;68846;53.150;18.136;2023-09-18T03:32:12;12.60;;;8.80;;
79375;SDS011;68846;53.150;18.136;2023-09-18T03:34:41;13.70;;;9.80;;
79375;SDS011;68846;53.150;18.136;2023-09-18T03:37:08;17.10;;;9.80;;
79375;SDS011;68846;53.150;18.136;2023-09-18T03:39:35;13.40;;;9.00;;
79375;SDS011;68846;53.150;18.136;2023-09-18T03:42:03;14.80;;;9.70;;
79375;SDS011;68846;53.150;18.136;2023-09-18T03:44:30;14.90;;;10.30;;
79375;SDS011;68846;53.150;18.136;2023-09-18T03:46:59;14.40;;;10.10;;
79375;SDS011;68846;53.150;18.136;2023-09-18T03:49:27;14.40;;;9.70;;
79375;SDS011;68846;53.150;18.136;2023-09-18T03:51:55;14.30;;;9.70;;
79375;SDS011;68846;53.150;18.136;2023-09-18T03:54:22;12.80;;;9.50;;
79375;SDS011;68846;53.150;18.136;2023-09-18T03:56:50;13.20;;;9.40;;
79375;SDS011;68846;53.150;18.136;2023-09-18T03:59:18;16.20;;;10.10;;
79375;SDS011;68846;53.150;18.136;2023-09-18T04:01:45;16.40;;;10.00;;
79375;SDS011;68846;53.150;18.136;2023-09-18T04:04:13;14.10;;;9.60;;
79375;SDS011;68846;53.150;18.136;2023-09-18T04:06:42;13.40;;;9.70;;
79375;SDS011;68846;53.150;18.136;2023-09-18T04:09:10;16.70;;;10.20;;
79375;SDS011;68846;53.150;18.136;2023-09-18T04:11:37;15.30;;;10.00;;
79375;SDS011;68846;53.150;18.136;2023-09-18T04:14:05;12.40;;;9.20;;
79375;SDS011;68846;53.150;18.136;2023-09-18T04:16:32;15.50;;;9.80;;
79375;SDS011;68846;53.150;18.136;2023-09-18T04:19:02;17.80;;;11.10;;
79375;SDS011;68846;53.150;18.136;2023-09-18T04:21:30;16.00;;;10.20;;
79375;SDS011;68846;53.150;18.136;2023-09-18T04:23:57;15.90;;;9.70;;
79375;SDS011;68846;53.150;18.136;2023-09-18T04:26:26;14.50;;;9.90;;
79375;SDS011;68846;53.150;18.136;2023-09-18T04:28:58;19.60;;;13.10;;
79375;SDS011;68846;53.150;18.136;2023-09-18T04:31:27;15.40;;;10.20;;
79375;SDS011;68846;53.150;18.136;2023-09-18T04:33:55;18.10;;;10.20;;
79375;SDS011;68846;53.150;18.136;2023-09-18T04:36:23;14.50;;;9.70;;
79375;SDS011;68846;53.150;18.136;2023-09-18T04:38:51;17.70;;;10.10;;
79375;SDS011;68846;53.150;18.136;2023-09-18T04:41:19;14.50;;;10.00;;
79375;SDS011;68846;53.150;18.136;2023-09-18T04:43:46;13.80;;;10.20;;
79375;SDS011;68846;53.150;18.136;2023-09-18T04:46:13;16.00;;;10.50;;
79375;SDS011;68846;53.150;18.136;2023-09-18T04:48:41;16.00;;;9.60;;
79375;SDS011;68846;53.150;18.136;2023-09-18T04:51:08;15.10;;;10.40;;
79375;SDS011;68846;53.150;18.136;2023-09-18T04:53:36;16.30;;;11.70;;
79375;SDS011;68846;53.150;18.136;2023-09-18T04:56:03;17.90;;;9.80;;
79375;SDS011;68846;53.150;18.136;2023-09-18T04:58:31;14.50;;;10.10;;
79375;SDS011;68846;53.150;18.136;2023-09-18T05:00:59;19.50;;;11.20;;
79375;SDS011;68846;53.150;18.136;2023-09-18T05:03:35;16.40;;;10.00;;
79375;SDS011;68846;53.150;18.136;2023-09-18T05:06:03;15.30;;;10.30;;
79375;SDS011;68846;53.150;18.136;2023-09-18T05:08:31;17.10;;;11.30;;
79375;SDS011;68846;53.150;18.136;2023-09-18T05:10:59;13.30;;;10.60;;
79375;SDS011;68846;53.150;18.136;2023-09-18T05:13:26;13.70;;;10.50;;
79375;SDS011;68846;53.150;18.136;2023-09-18T05:15:53;15.00;;;10.90;;
79375;SDS011;68846;53.150;18.136;2023-09-18T05:18:20;15.90;;;11.00;;
79375;SDS011;68846;53.150;18.136;2023-09-18T05:20:48;16.10;;;11.70;;
79375;SDS011;68846;53.150;18.136;2023-09-18T05:23:16;13.80;;;10.60;;
79375;SDS011;68846;53.150;18.136;2023-09-18T05:25:43;16.10;;;10.60;;
79375;SDS011;68846;53.150;18.136;2023-09-18T05:28:11;18.70;;;11.80;;
79375;SDS011;68846;53.150;18.136;2023-09-18T05:30:38;19.60;;;11.00;;
79375;SDS011;68846;53.150;18.136;2023-09-18T05:33:05;19.00;;;11.20;;
79375;SDS011;68846;53.150;18.136;2023-09-18T05:35:35;17.30;;;11.10;;
79375;SDS011;68846;53.150;18.136;2023-09-18T05:38:06;20.00;;;13.00;;
79375;SDS011;68846;53.150;18.136;2023-09-18T05:40:34;15.80;;;10.50;;
79375;SDS011;68846;53.150;18.136;2023-09-18T05:43:01;20.70;;;11.20;;
79375;SDS011;68846;53.150;18.136;2023-09-18T05:45:29;19.50;;;10.40;;
79375;SDS011;68846;53.150;18.136;2023-09-18T05:47:57;18.60;;;11.20;;
79375;SDS011;68846;53.150;18.136;2023-09-18T05:50:31;18.10;;;11.30;;
79375;SDS011;68846;53.150;18.136;2023-09-18T05:52:59;16.90;;;11.80;;
79375;SDS011;68846;53.150;18.136;2023-09-18T05:55:31;17.30;;;11.00;;
79375;SDS011;68846;53.150;18.136;2023-09-18T05:57:59;18.80;;;11.40;;
79375;SDS011;68846;53.150;18.136;2023-09-18T06:00:26;24.80;;;11.80;;
79375;SDS011;68846;53.150;18.136;2023-09-18T06:02:54;18.30;;;11.70;;
79375;SDS011;68846;53.150;18.136;2023-09-18T06:05:21;17.90;;;10.90;;
79375;SDS011;68846;53.150;18.136;2023-09-18T06:07:48;13.70;;;10.30;;
79375;SDS011;68846;53.150;18.136;2023-09-18T06:10:16;18.10;;;10.80;;
79375;SDS011;68846;53.150;18.136;2023-09-18T06:12:44;18.20;;;11.30;;
79375;SDS011;68846;53.150;18.136;2023-09-18T06:15:12;16.20;;;10.60;;
79375;SDS011;68846;53.150;18.136;2023-09-18T06:17:42;14.00;;;10.60;;
79375;SDS011;68846;53.150;18.136;2023-09-18T06:20:10;16.00;;;11.50;;
79375;SDS011;68846;53.150;18.136;2023-09-18T06:23:07;18.40;;;10.70;;
79375;SDS011;68846;53.150;18.136;2023-09-18T06:25:35;17.60;;;11.00;;
79375;SDS011;68846;53.150;18.136;2023-09-18T06:28:02;16.10;;;11.00;;
79375;SDS011;68846;53.150;18.136;2023-09-18T06:30:30;17.00;;;9.90;;
79375;SDS011;68846;53.150;18.136;2023-09-18T06:33:00;14.80;;;10.70;;
79375;SDS011;68846;53.150;18.136;2023-09-18T06:35:27;15.80;;;11.00;;
79375;SDS011;68846;53.150;18.136;2023-09-18T06:37:55;15.10;;;10.70;;
79375;SDS011;68846;53.150;18.136;2023-09-18T06:40:25;14.40;;;10.20;;
79375;SDS011;68846;53.150;18.136;2023-09-18T06:42:58;15.50;;;9.50;;
79375;SDS011;68846;53.150;18.136;2023-09-18T06:45:27;13.20;;;9.00;;
79375;SDS011;68846;53.150;18.136;2023-09-18T06:47:55;14.40;;;10.20;;
79375;SDS011;68846;53.150;18.136;2023-09-18T06:50:22;14.50;;;9.90;;
79375;SDS011;68846;53.150;18.136;2023-09-18T06:52:49;16.10;;;10.80;;
79375;SDS011;68846;53.150;18.136;2023-09-18T06:55:16;13.10;;;9.80;;
79375;SDS011;68846;53.150;18.136;2023-09-18T06:57:44;16.00;;;10.10;;
79375;SDS011;68846;53.150;18.136;2023-09-18T07:00:12;18.00;;;10.30;;
79375;SDS011;68846;53.150;18.136;2023-09-18T07:02:41;13.60;;;9.80;;
79375;SDS011;68846;53.150;18.136;2023-09-18T07:05:08;17.60;;;10.00;;
79375;SDS011;68846;53.150;18.136;2023-09-18T07:07:36;13.70;;;10.10;;
79375;SDS011;68846;53.150;18.136;2023-09-18T07:10:03;18.10;;;9.70;;
79375;SDS011;68846;53.150;18.136;2023-09-18T07:12:31;16.30;;;9.60;;
79375;SDS011;68846;53.150;18.136;2023-09-18T07:15:02;13.50;;;9.00;;
79375;SDS011;68846;53.150;18.136;2023-09-18T07:17:33;13.50;;;9.10;;
79375;SDS011;68846;53.150;18.136;2023-09-18T07:20:01;12.90;;;8.90;;
79375;SDS011;68846;53.150;18.136;2023-09-18T07:22:36;13.00;;;8.50;;
79375;SDS011;68846;53.150;18.136;2023-09-18T07:25:05;13.80;;;8.50;;
79375;SDS011;68846;53.150;18.136;2023-09-18T07:27:33;19.10;;;9.50;;
79375;SDS011;68846;53.150;18.136;2023-09-18T07:30:03;11.90;;;8.80;;
79375;SDS011;68846;53.150;18.136;2023-09-18T07:32:31;15.00;;;9.10;;
79375;SDS011;68846;53.150;18.136;2023-09-18T07:34:59;14.10;;;9.70;;
79375;SDS011;68846;53.150;18.136;2023-09-18T07:37:26;12.50;;;8.60;;
79375;SDS011;68846;53.150;18.136;2023-09-18T07:39:54;12.80;;;9.10;;
79375;SDS011;68846;53.150;18.136;2023-09-18T07:42:25;13.40;;;8.40;;
79375;SDS011;68846;53.150;18.136;2023-09-18T07:44:53;11.90;;;8.40;;
79375;SDS011;68846;53.150;18.136;2023-09-18T07:47:21;11.50;;;8.20;;
79375;SDS011;68846;53.150;18.136;2023-09-18T07:49:49;10.00;;;8.40;;
79375;SDS011;68846;53.150;18.136;2023-09-18T07:52:17;13.30;;;8.90;;
79375;SDS011;68846;53.150;18.136;2023-09-18T07:54:44;10.40;;;8.50;;
79375;SDS011;68846;53.150;18.136;2023-09-18T07:57:11;10.20;;;7.60;;
79375;SDS011;68846;53.150;18.136;2023-09-18T07:59:38;12.20;;;7.60;;
79375;SDS011;68846;53.150;18.136;2023-09-18T08:02:06;10.50;;;8.40;;
79375;SDS011;68846;53.150;18.136;2023-09-18T08:04:35;12.70;;;8.70;;
79375;SDS011;68846;53.150;18.136;2023-09-18T08:07:03;9.60;;;7.20;;
79375;SDS011;68846;53.150;18.136;2023-09-18T08:09:33;10.70;;;7.80;;
79375;SDS011;68846;53.150;18.136;2023-09-18T08:12:04;11.20;;;7.30;;
79375;SDS011;68846;53.150;18.136;2023-09-18T08:14:32;10.30;;;6.90;;
79375;SDS011;68846;53.150;18.136;2023-09-18T08:17:03;11.00;;;7.60;;
79375;SDS011;68846;53.150;18.136;2023-09-18T08:19:31;9.30;;;7.20;;
79375;SDS011;68846;53.150;18.136;2023-09-18T08:21:59;11.60;;;7.70;;
79375;SDS011;68846;53.150;18.136;2023-09-18T08:24:26;10.30;;;7.30;;
79375;SDS011;68846;53.150;18.136;2023-09-18T08:26:54;14.70;;;7.80;;
79375;SDS011;68846;53.150;18.136;2023-09-18T08:29:22;10.30;;;7.40;;
79375;SDS011;68846;53.150;18.136;2023-09-18T08:31:49;8.90;;;6.50;;
79375;SDS011;68846;53.150;18.136;2023-09-18T08:34:18;9.60;;;7.30;;
79375;SDS011;68846;53.150;18.136;2023-09-18T08:36:45;10.60;;;6.60;;
79375;SDS011;68846;53.150;18.136;2023-09-18T08:39:12;11.30;;;6.60;;
79375;SDS011;68846;53.150;18.136;2023-09-18T08:41:42;10.80;;;6.20;;
79375;SDS011;68846;53.150;18.136;2023-09-18T08:44:10;8.90;;;6.50;;
79375;SDS011;68846;53.150;18.136;2023-09-18T08:46:37;13.60;;;6.90;;
79375;SDS011;68846;53.150;18.136;2023-09-18T08:49:05;8.80;;;6.50;;
79375;SDS011;68846;53.150;18.136;2023-09-18T08:51:34;9.30;;;7.00;;
79375;SDS011;68846;53.150;18.136;2023-09-18T08:54:05;8.90;;;6.80;;
79375;SDS011;68846;53.150;18.136;2023-09-18T08:56:33;12.60;;;7.00;;
79375;SDS011;68846;53.150;18.136;2023-09-18T08:59:01;9.60;;;6.70;;
79375;SDS011;68846;53.150;18.136;2023-09-18T09:01:28;9.30;;;6.60;;
79375;SDS011;68846;53.150;18.136;2023-09-18T09:03:55;8.40;;;6.40;;
79375;SDS011;68846;53.150;18.136;2023-09-18T09:06:23;8.30;;;6.00;;
79375;SDS011;68846;53.150;18.136;2023-09-18T09:08:50;7.10;;;5.90;;
79375;SDS011;68846;53.150;18.136;2023-09-18T09:11:18;7.60;;;5.90;;
79375;SDS011;68846;53.150;18.136;2023-09-18T09:13:46;8.80;;;6.00;;
79375;SDS011;68846;53.150;18.136;2023-09-18T09:16:13;8.20;;;6.20;;
79375;SDS011;68846;53.150;18.136;2023-09-18T09:18:48;8.70;;;6.10;;
79375;SDS011;68846;53.150;18.136;2023-09-18T09:23:52;6.90;;;5.40;;
79375;SDS011;68846;53.150;18.136;2023-09-18T09:26:21;7.90;;;5.80;;
79375;SDS011;68846;53.150;18.136;2023-09-18T09:28:50;7.50;;;5.60;;
79375;SDS011;68846;53.150;18.136;2023-09-18T09:31:27;5.90;;;5.30;;
79375;SDS011;68846;53.150;18.136;2023-09-18T09:33:56;7.10;;;5.00;;
79375;SDS011;68846;53.150;18.136;2023-09-18T09:36:27;6.50;;;5.40;;
79375;SDS011;68846;53.150;18.136;2023-09-18T09:38:58;7.70;;;5.30;;
79375;SDS011;68846;53.150;18.136;2023-09-18T09:41:26;5.90;;;5.00;;
79375;SDS011;68846;53.150;18.136;2023-09-18T09:43:57;6.80;;;5.50;;
79375;SDS011;68846;53.150;18.136;2023-09-18T09:46:24;9.00;;;4.90;;
79375;SDS011;68846;53.150;18.136;2023-09-18T09:48:59;8.90;;;5.40;;
79375;SDS011;68846;53.150;18.136;2023-09-18T09:51:28;12.80;;;5.60;;
79375;SDS011;68846;53.150;18.136;2023-09-18T09:53:57;6.30;;;5.10;;
79375;SDS011;68846;53.150;18.136;2023-09-18T09:56:47;7.60;;;4.90;;
79375;SDS011;68846;53.150;18.136;2023-09-18T09:59:18;10.50;;;5.30;;
79375;SDS011;68846;53.150;18.136;2023-09-18T10:01:49;7.30;;;5.30;;
79375;SDS011;68846;53.150;18.136;2023-09-18T10:04:18;9.30;;;5.70;;
79375;SDS011;68846;53.150;18.136;2023-09-18T10:06:57;7.20;;;5.20;;
79375;SDS011;68846;53.150;18.136;2023-09-18T10:09:32;7.40;;;5.10;;
79375;SDS011;68846;53.150;18.136;2023-09-18T10:12:03;5.60;;;4.10;;
79375;SDS011;68846;53.150;18.136;2023-09-18T10:14:37;6.90;;;4.70;;
79375;SDS011;68846;53.150;18.136;2023-09-18T10:17:15;5.50;;;4.50;;
79375;SDS011;68846;53.150;18.136;2023-09-18T10:19:56;5.40;;;4.60;;
79375;SDS011;68846;53.150;18.136;2023-09-18T10:22:45;5.40;;;4.50;;
79375;SDS011;68846;53.150;18.136;2023-09-18T10:25:19;5.30;;;4.40;;
79375;SDS011;68846;53.150;18.136;2023-09-18T10:27:51;7.10;;;4.90;;
79375;SDS011;68846;53.150;18.136;2023-09-18T10:30:25;5.80;;;4.30;;
79375;SDS011;68846;53.150;18.136;2023-09-18T10:32:54;6.10;;;5.50;;
79375;SDS011;68846;53.150;18.136;2023-09-18T10:35:24;5.30;;;4.70;;
79375;SDS011;68846;53.150;18.136;2023-09-18T10:37:54;9.00;;;5.00;;
79375;SDS011;68846;53.150;18.136;2023-09-18T10:40:21;8.20;;;5.60;;
79375;SDS011;68846;53.150;18.136;2023-09-18T10:42:51;7.20;;;4.70;;
79375;SDS011;68846;53.150;18.136;2023-09-18T10:45:20;8.10;;;4.70;;
79375;SDS011;68846;53.150;18.136;2023-09-18T10:47:48;8.00;;;5.30;;
79375;SDS011;68846;53.150;18.136;2023-09-18T10:50:28;6.80;;;5.10;;
79375;SDS011;68846;53.150;18.136;2023-09-18T10:52:57;8.50;;;5.60;;
79375;SDS011;68846;53.150;18.136;2023-09-18T10:55:26;7.50;;;5.40;;
79375;SDS011;68846;53.150;18.136;2023-09-18T10:57:55;6.60;;;5.60;;
79375;SDS011;68846;53.150;18.136;2023-09-18T11:00:25;6.90;;;5.70;;
79375;SDS011;68846;53.150;18.136;2023-09-18T11:03:15;6.80;;;5.80;;
79375;SDS011;68846;53.150;18.136;2023-09-18T11:05:45;5.60;;;5.00;;
79375;SDS011;68846;53.150;18.136;2023-09-18T11:08:30;8.20;;;5.80;;
79375;SDS011;68846;53.150;18.136;2023-09-18T11:11:08;7.50;;;6.10;;
79375;SDS011;68846;53.150;18.136;2023-09-18T11:13:42;7.60;;;6.50;;
79375;SDS011;68846;53.150;18.136;2023-09-18T11:19:04;7.30;;;6.60;;
79375;SDS011;68846;53.150;18.136;2023-09-18T11:21:36;9.20;;;6.60;;
79375;SDS011;68846;53.150;18.136;2023-09-18T11:24:17;8.90;;;6.50;;
79375;SDS011;68846;53.150;18.136;2023-09-18T11:26:48;7.80;;;6.50;;
79375;SDS011;68846;53.150;18.136;2023-09-18T11:29:20;8.30;;;6.70;;
79375;SDS011;68846;53.150;18.136;2023-09-18T11:31:51;7.80;;;6.80;;
79375;SDS011;68846;53.150;18.136;2023-09-18T11:34:28;10.60;;;6.50;;
79375;SDS011;68846;53.150;18.136;2023-09-18T11:36:59;8.80;;;7.20;;
79375;SDS011;68846;53.150;18.136;2023-09-18T11:39:39;8.90;;;6.90;;
79375;SDS011;68846;53.150;18.136;2023-09-18T11:42:18;10.80;;;7.60;;
79375;SDS011;68846;53.150;18.136;2023-09-18T11:44:46;9.10;;;6.70;;
79375;SDS011;68846;53.150;18.136;2023-09-18T11:47:16;9.60;;;7.40;;
79375;SDS011;68846;53.150;18.136;2023-09-18T11:49:50;8.30;;;6.70;;
79375;SDS011;68846;53.150;18.136;2023-09-18T11:52:21;11.90;;;6.70;;
79375;SDS011;68846;53.150;18.136;2023-09-18T11:54:50;8.00;;;6.40;;
79375;SDS011;68846;53.150;18.136;2023-09-18T11:57:18;9.20;;;6.10;;
79375;SDS011;68846;53.150;18.136;2023-09-18T11:59:46;11.60;;;7.10;;
79375;SDS011;68846;53.150;18.136;2023-09-18T12:02:25;6.80;;;6.00;;
79375;SDS011;68846;53.150;18.136;2023-09-18T12:05:13;12.30;;;5.00;;
79375;SDS011;68846;53.150;18.136;2023-09-18T12:07:43;10.20;;;5.50;;
79375;SDS011;68846;53.150;18.136;2023-09-18T12:10:16;8.40;;;4.60;;
79375;SDS011;68846;53.150;18.136;2023-09-18T12:15:16;7.50;;;4.50;;
79375;SDS011;68846;53.150;18.136;2023-09-18T12:17:45;4.60;;;3.90;;
79375;SDS011;68846;53.150;18.136;2023-09-18T12:20:16;4.20;;;3.40;;
79375;SDS011;68846;53.150;18.136;2023-09-18T12:22:50;6.80;;;4.30;;
79375;SDS011;68846;53.150;18.136;2023-09-18T12:25:17;8.10;;;4.10;;
79375;SDS011;68846;53.150;18.136;2023-09-18T12:27:46;5.40;;;3.40;;
79375;SDS011;68846;53.150;18.136;2023-09-18T12:30:19;5.90;;;4.00;;
79375;SDS011;68846;53.150;18.136;2023-09-18T12:32:48;4.90;;;3.70;;
79375;SDS011;68846;53.150;18.136;2023-09-18T12:35:16;5.70;;;3.90;;
79375;SDS011;68846;53.150;18.136;2023-09-18T12:37:45;4.90;;;4.10;;
79375;SDS011;68846;53.150;18.136;2023-09-18T12:40:29;5.60;;;4.00;;
79375;SDS011;68846;53.150;18.136;2023-09-18T12:43:00;5.70;;;4.30;;
79375;SDS011;68846;53.150;18.136;2023-09-18T12:45:28;9.60;;;3.90;;
79375;SDS011;68846;53.150;18.136;2023-09-18T12:47:57;4.90;;;4.10;;
79375;SDS011;68846;53.150;18.136;2023-09-18T12:50:25;5.70;;;4.20;;
79375;SDS011;68846;53.150;18.136;2023-09-18T12:52:52;8.10;;;4.10;;
79375;SDS011;68846;53.150;18.136;2023-09-18T12:55:26;7.30;;;4.80;;
79375;SDS011;68846;53.150;18.136;2023-09-18T12:57:54;5.90;;;4.60;;
79375;SDS011;68846;53.150;18.136;2023-09-18T13:00:22;5.50;;;4.50;;
79375;SDS011;68846;53.150;18.136;2023-09-18T13:02:53;5.80;;;4.70;;
79375;SDS011;68846;53.150;18.136;2023-09-18T13:05:25;5.50;;;4.20;;
79375;SDS011;68846;53.150;18.136;2023-09-18T13:07:53;6.00;;;4.50;;
79375;SDS011;68846;53.150;18.136;2023-09-18T13:10:21;7.50;;;4.90;;
79375;SDS011;68846;53.150;18.136;2023-09-18T13:12:53;4.90;;;4.40;;
79375;SDS011;68846;53.150;18.136;2023-09-18T13:15:29;6.70;;;4.70;;
79375;SDS011;68846;53.150;18.136;2023-09-18T13:17:59;6.30;;;4.40;;
79375;SDS011;68846;53.150;18.136;2023-09-18T13:20:28;5.40;;;4.60;;
79375;SDS011;68846;53.150;18.136;2023-09-18T13:22:57;8.40;;;4.80;;
79375;SDS011;68846;53.150;18.136;2023-09-18T13:25:31;10.70;;;4.70;;
79375;SDS011;68846;53.150;18.136;2023-09-18T13:28:05;7.60;;;5.00;;
79375;SDS011;68846;53.150;18.136;2023-09-18T13:30:39;6.20;;;4.60;;
79375;SDS011;68846;53.150;18.136;2023-09-18T13:33:13;5.60;;;5.00;;
79375;SDS011;68846;53.150;18.136;2023-09-18T13:35:44;6.80;;;5.00;;
79375;SDS011;68846;53.150;18.136;2023-09-18T13:38:12;5.30;;;4.60;;
79375;SDS011;68846;53.150;18.136;2023-09-18T13:40:41;7.80;;;4.60;;
79375;SDS011;68846;53.150;18.136;2023-09-18T13:43:09;6.50;;;4.30;;
79375;SDS011;68846;53.150;18.136;2023-09-18T13:45:38;5.20;;;4.40;;
79375;SDS011;68846;53.150;18.136;2023-09-18T13:48:06;6.00;;;4.70;;
79375;SDS011;68846;53.150;18.136;2023-09-18T13:50:34;6.30;;;4.90;;
79375;SDS011;68846;53.150;18.136;2023-09-18T13:53:03;5.70;;;4.30;;
79375;SDS011;68846;53.150;18.136;2023-09-18T13:55:34;6.70;;;4.70;;
79375;SDS011;68846;53.150;18.136;2023-09-18T13:58:02;5.90;;;5.30;;
79375;SDS011;68846;53.150;18.136;2023-09-18T14:00:30;9.40;;;5.30;;
79375;SDS011;68846;53.150;18.136;2023-09-18T14:02:59;5.50;;;4.60;;
79375;SDS011;68846;53.150;18.136;2023-09-18T14:05:27;7.40;;;4.90;;
79375;SDS011;68846;53.150;18.136;2023-09-18T14:07:56;7.60;;;4.70;;
79375;SDS011;68846;53.150;18.136;2023-09-18T14:10:26;7.00;;;4.70;;
79375;SDS011;68846;53.150;18.136;2023-09-18T14:12:55;8.40;;;4.50;;
79375;SDS011;68846;53.150;18.136;2023-09-18T14:15:24;8.00;;;5.40;;
79375;SDS011;68846;53.150;18.136;2023-09-18T14:17:51;6.40;;;5.00;;
79375;SDS011;68846;53.150;18.136;2023-09-18T14:20:18;7.50;;;5.10;;
79375;SDS011;68846;53.150;18.136;2023-09-18T14:22:46;5.90;;;5.30;;
79375;SDS011;68846;53.150;18.136;2023-09-18T14:25:16;8.00;;;5.20;;
79375;SDS011;68846;53.150;18.136;2023-09-18T14:27:46;8.90;;;5.40;;
79375;SDS011;68846;53.150;18.136;2023-09-18T14:30:13;8.10;;;5.60;;
79375;SDS011;68846;53.150;18.136;2023-09-18T14:32:41;6.70;;;5.90;;
79375;SDS011;68846;53.150;18.136;2023-09-18T14:35:09;9.30;;;5.90;;
79375;SDS011;68846;53.150;18.136;2023-09-18T14:38:02;11.80;;;6.10;;
79375;SDS011;68846;53.150;18.136;2023-09-18T14:40:31;7.80;;;5.70;;
79375;SDS011;68846;53.150;18.136;2023-09-18T14:42:58;6.80;;;5.50;;
79375;SDS011;68846;53.150;18.136;2023-09-18T14:45:25;11.60;;;6.90;;
79375;SDS011;68846;53.150;18.136;2023-09-18T14:47:53;10.60;;;6.40;;